createdAt,value
2018-12-15T00:03:57.840Z,16.07
2018-12-15T00:06:39.573Z,16.70
2018-12-15T00:09:17.238Z,15.33
2018-12-15T00:11:46.823Z,16.03
2018-12-15T00:14:14.997Z,16.30
2018-12-15T00:16:43.294Z,16.17
2018-12-15T00:19:12.669Z,16.93
2018-12-15T00:24:46.739Z,17.60
2018-12-15T00:27:25.480Z,16.63
2018-12-15T00:29:53.999Z,17.00
2018-12-15T00:32:22.322Z,17.27
2018-12-15T00:35:06.975Z,17.83
2018-12-15T00:37:35.214Z,17.03
2018-12-15T00:40:11.243Z,17.07
2018-12-15T00:42:39.594Z,16.07
2018-12-15T00:48:03.960Z,17.23
2018-12-15T00:53:27.841Z,17.83
2018-12-15T00:55:56.053Z,17.73
2018-12-15T00:58:24.278Z,17.37
2018-12-15T01:00:53.492Z,17.83
2018-12-15T01:03:34.117Z,18.23
2018-12-15T01:11:54.370Z,16.80
2018-12-15T01:14:24.239Z,18.60
2018-12-15T01:16:52.857Z,18.47
2018-12-15T01:19:22.501Z,18.50
2018-12-15T01:21:51.133Z,18.17
2018-12-15T01:24:19.446Z,18.03
2018-12-15T01:26:48.900Z,17.63
2018-12-15T01:29:17.212Z,17.03
2018-12-15T01:31:46.117Z,17.87
2018-12-15T01:37:21.211Z,17.73
2018-12-15T01:39:49.533Z,18.30
2018-12-15T01:42:17.990Z,18.10
2018-12-15T01:44:46.589Z,18.03
2018-12-15T01:47:14.984Z,18.80
2018-12-15T01:49:43.224Z,17.73
2018-12-15T01:52:15.763Z,18.97
2018-12-15T01:54:43.959Z,18.13
2018-12-15T02:00:13.243Z,18.10
2018-12-15T02:02:41.692Z,18.63
2018-12-15T02:05:15.885Z,18.10
2018-12-15T02:10:47.393Z,19.10
2018-12-15T02:13:18.752Z,18.30
2018-12-15T02:15:54.931Z,18.63
2018-12-15T02:18:28.616Z,18.67
2018-12-15T02:20:57.119Z,18.17
2018-12-15T02:29:08.171Z,19.17
2018-12-15T02:34:28.721Z,18.63
2018-12-15T02:36:57.008Z,19.53
2018-12-15T02:39:25.184Z,18.87
2018-12-15T02:41:54.149Z,19.33
2018-12-15T02:44:22.338Z,19.40
2018-12-15T02:46:54.343Z,20.03
2018-12-15T02:49:22.843Z,18.03
2018-12-15T02:54:46.475Z,19.83
2018-12-15T03:00:11.885Z,19.30
2018-12-15T03:08:38.905Z,20.27
2018-12-15T03:14:14.552Z,18.27
2018-12-15T03:19:46.181Z,19.20
2018-12-15T03:22:28.367Z,19.23
2018-12-15T03:25:03.092Z,18.33
2018-12-15T03:27:31.305Z,20.13
2018-12-15T03:32:45.703Z,19.13
2018-12-15T03:35:13.982Z,19.53
2018-12-15T03:37:47.838Z,18.43
2018-12-15T03:49:03.004Z,19.07
2018-12-15T03:51:31.284Z,18.70
2018-12-15T03:54:11.790Z,19.00
2018-12-15T03:56:46.060Z,18.67
2018-12-15T04:02:09.850Z,19.10
2018-12-15T04:04:38.034Z,20.27
2018-12-15T04:07:06.757Z,19.73
2018-12-15T04:09:35.265Z,19.33
2018-12-15T04:12:03.341Z,19.57
2018-12-15T04:14:31.466Z,19.83
2018-12-15T04:17:02.995Z,20.50
2018-12-15T04:19:31.354Z,19.40
2018-12-15T04:22:05.350Z,19.97
2018-12-15T04:24:33.587Z,18.17
2018-12-15T04:27:01.948Z,18.63
2018-12-15T04:29:30.113Z,19.17
2018-12-15T04:31:58.238Z,18.40
2018-12-15T04:34:26.818Z,19.87
2018-12-15T04:36:55.055Z,20.40
2018-12-15T04:39:23.186Z,17.93
2018-12-15T04:41:51.317Z,18.60
2018-12-15T04:44:19.926Z,19.13
2018-12-15T04:46:48.347Z,19.17
2018-12-15T04:49:17.367Z,19.70
2018-12-15T04:51:45.713Z,21.10
2018-12-15T04:54:13.893Z,19.47
2018-12-15T04:56:42.169Z,19.50
2018-12-15T04:59:10.668Z,19.70
2018-12-15T05:01:38.911Z,20.63
2018-12-15T05:04:07.354Z,20.17
2018-12-15T05:06:35.539Z,20.10
2018-12-15T05:09:04.666Z,20.27
2018-12-15T05:11:33.027Z,20.23
2018-12-15T05:14:01.156Z,19.90
2018-12-15T05:16:29.382Z,19.43
2018-12-15T05:18:57.708Z,20.93
2018-12-15T05:21:25.888Z,20.17
2018-12-15T05:23:54.106Z,19.50
2018-12-15T05:26:22.571Z,19.37
2018-12-15T05:31:46.633Z,20.27
2018-12-15T05:34:14.951Z,20.03
2018-12-15T05:36:43.312Z,20.23
2018-12-15T05:39:11.694Z,20.50
2018-12-15T05:41:39.895Z,20.57
2018-12-15T05:44:08.390Z,20.37
2018-12-15T05:46:49.133Z,20.33
2018-12-15T05:49:17.553Z,21.47
2018-12-15T05:51:45.857Z,20.87
2018-12-15T05:54:14.080Z,20.10
2018-12-15T05:56:42.368Z,20.87
2018-12-15T05:59:11.198Z,20.37
2018-12-15T06:01:39.843Z,19.77
2018-12-15T06:04:08.363Z,20.13
2018-12-15T06:06:36.500Z,19.23
2018-12-15T06:09:05.559Z,20.33
2018-12-15T06:11:43.342Z,19.20
2018-12-15T06:14:23.745Z,20.63
2018-12-15T06:17:01.618Z,19.80
2018-12-15T06:19:36.272Z,18.60
2018-12-15T06:22:16.656Z,20.07
2018-12-15T06:24:44.979Z,21.03
2018-12-15T06:30:11.654Z,19.77
2018-12-15T06:32:39.911Z,19.70
2018-12-15T06:35:08.415Z,19.93
2018-12-15T06:37:36.758Z,20.97
2018-12-15T06:40:05.501Z,20.60
2018-12-15T06:42:44.326Z,21.93
2018-12-15T06:51:11.301Z,21.07
2018-12-15T06:53:46.068Z,21.37
2018-12-15T06:56:26.564Z,20.53
2018-12-15T06:59:01.295Z,19.97
2018-12-15T07:01:31.105Z,19.50
2018-12-15T07:03:59.959Z,19.93
2018-12-15T07:06:28.106Z,19.87
2018-12-15T07:08:56.338Z,19.23
2018-12-15T07:11:24.556Z,19.47
2018-12-15T07:13:53.035Z,19.33
2018-12-15T07:16:21.502Z,18.90
2018-12-15T07:18:50.092Z,17.97
2018-12-15T07:21:18.586Z,17.57
2018-12-15T07:24:02.992Z,17.23
2018-12-15T07:26:39.222Z,16.03
2018-12-15T07:29:17.240Z,16.20
2018-12-15T07:31:56.035Z,16.83
2018-12-15T07:34:36.251Z,16.80
2018-12-15T07:37:13.276Z,15.70
2018-12-15T07:39:48.085Z,16.27
2018-12-15T07:42:26.642Z,15.97
2018-12-15T07:45:04.989Z,16.13
2018-12-15T07:47:42.773Z,14.40
2018-12-15T07:50:17.974Z,15.27
2018-12-15T07:52:55.767Z,14.73
2018-12-15T07:55:36.290Z,14.90
2018-12-15T07:58:16.771Z,15.10
2018-12-15T08:00:53.120Z,15.30
2018-12-15T08:03:28.015Z,15.73
2018-12-15T08:06:12.571Z,15.67
2018-12-15T08:08:53.137Z,16.77
2018-12-15T08:11:37.181Z,16.37
2018-12-15T08:14:17.837Z,15.57
2018-12-15T08:19:54.241Z,16.47
2018-12-15T08:22:34.666Z,16.67
2018-12-15T08:25:15.247Z,17.10
2018-12-15T08:27:53.543Z,18.27
2018-12-15T08:30:30.616Z,17.80
2018-12-15T08:33:07.475Z,16.23
2018-12-15T08:35:43.344Z,18.27
2018-12-15T08:47:11.019Z,17.83
2018-12-15T08:49:45.534Z,17.63
2018-12-15T08:52:26.184Z,16.87
2018-12-15T08:55:10.319Z,18.67
2018-12-15T09:03:39.509Z,16.30
2018-12-15T09:06:07.785Z,16.27
2018-12-15T09:08:39.039Z,16.43
2018-12-15T09:11:15.596Z,17.67
2018-12-15T09:16:51.514Z,16.90
2018-12-15T09:19:19.638Z,16.10
2018-12-15T09:21:59.858Z,16.67
2018-12-15T09:27:23.521Z,16.50
2018-12-15T09:29:52.735Z,16.07
2018-12-15T09:32:22.391Z,16.90
2018-12-15T09:34:52.753Z,17.40
2018-12-15T09:49:20.808Z,16.77
2018-12-15T09:51:49.857Z,19.50
2018-12-15T10:00:17.282Z,15.03
2018-12-15T10:02:55.000Z,15.47
2018-12-15T10:05:35.943Z,16.73
2018-12-15T10:11:00.322Z,15.70
2018-12-15T10:13:28.579Z,16.70
2018-12-15T10:19:05.265Z,15.93
2018-12-15T10:21:40.001Z,15.47
2018-12-15T10:27:07.350Z,15.53
2018-12-15T10:29:48.009Z,14.57
2018-12-15T10:32:27.220Z,15.20
2018-12-15T10:40:57.706Z,15.40
2018-12-15T10:49:23.656Z,15.23
2018-12-15T10:54:38.576Z,15.50
2018-12-15T10:57:09.224Z,15.03
2018-12-15T10:59:39.959Z,14.80
2018-12-15T11:02:09.957Z,15.73
2018-12-15T11:04:39.191Z,14.63
2018-12-15T11:07:07.584Z,15.17
2018-12-15T11:09:43.831Z,14.47
2018-12-15T11:12:19.346Z,14.47
2018-12-15T11:15:00.909Z,15.80
2018-12-15T11:17:38.805Z,14.60
2018-12-15T11:20:19.241Z,15.10
2018-12-15T11:46:57.757Z,14.10
2018-12-15T11:49:27.590Z,13.87
2018-12-15T11:51:56.344Z,14.03
2018-12-15T11:54:25.823Z,13.97
2018-12-15T11:56:54.616Z,13.23
2018-12-15T11:59:24.346Z,13.30
2018-12-15T12:01:54.601Z,13.47
2018-12-15T12:04:24.446Z,14.83
2018-12-15T12:09:40.988Z,13.50
2018-12-15T12:12:12.656Z,13.17
2018-12-15T12:17:37.264Z,13.70
2018-12-15T12:20:13.772Z,13.90
2018-12-15T12:22:41.975Z,13.30
2018-12-15T12:25:10.078Z,13.97
2018-12-15T12:27:38.204Z,13.93
2018-12-15T12:30:06.595Z,12.90
2018-12-15T12:32:34.734Z,13.80
2018-12-15T12:35:03.108Z,14.23
2018-12-15T12:37:32.378Z,13.87
2018-12-15T12:40:13.640Z,13.77
2018-12-15T12:45:45.210Z,14.43
2018-12-15T12:48:23.540Z,14.80
2018-12-15T12:51:05.127Z,15.33
2018-12-15T12:53:43.361Z,14.97
2018-12-15T12:59:19.484Z,14.20
2018-12-15T13:10:50.030Z,14.30
2018-12-15T13:34:06.173Z,14.27
2018-12-15T13:45:32.901Z,14.10
2018-12-15T13:54:02.102Z,15.30
2018-12-15T13:59:37.551Z,15.17
2018-12-15T14:02:13.906Z,15.07
2018-12-15T14:04:51.888Z,14.63
2018-12-15T14:10:16.088Z,14.80
2018-12-15T14:12:45.110Z,14.33
2018-12-15T14:15:13.323Z,15.47
2018-12-15T14:17:43.227Z,14.87
2018-12-15T14:20:16.781Z,15.47
2018-12-15T14:22:41.740Z,14.27
2018-12-15T14:25:09.969Z,15.07
2018-12-15T14:27:42.024Z,15.10
2018-12-15T14:30:11.330Z,15.50
2018-12-15T14:36:07.729Z,15.37
2018-12-15T14:38:36.149Z,14.87
2018-12-15T14:44:00.287Z,14.93
2018-12-15T14:46:28.487Z,16.33
2018-12-15T14:48:58.378Z,15.53
2018-12-15T14:51:26.766Z,16.30
2018-12-15T14:53:55.080Z,15.77
2018-12-15T14:56:24.210Z,16.40
2018-12-15T15:04:45.299Z,16.33
2018-12-15T15:07:13.435Z,16.13
2018-12-15T15:09:41.930Z,16.07
2018-12-15T15:18:04.902Z,16.47
2018-12-15T15:20:40.872Z,17.60
2018-12-15T15:23:15.281Z,17.53
2018-12-15T15:25:43.544Z,17.03
2018-12-15T15:33:45.658Z,17.40
2018-12-15T15:36:13.828Z,17.57
2018-12-15T15:41:53.916Z,17.73
2018-12-15T15:44:22.061Z,17.40
2018-12-15T15:47:07.263Z,17.53
2018-12-15T15:58:34.698Z,18.67
2018-12-15T16:04:11.693Z,18.40
2018-12-15T16:06:42.714Z,19.20
2018-12-15T16:09:11.270Z,17.87
2018-12-15T16:11:56.541Z,18.47
2018-12-15T16:14:27.808Z,18.00
2018-12-15T16:16:59.204Z,18.50
2018-12-15T16:19:37.423Z,17.90
2018-12-15T16:22:16.647Z,17.67
2018-12-15T16:24:52.974Z,18.77
2018-12-15T16:27:27.002Z,19.50
2018-12-15T16:30:01.420Z,18.50
2018-12-15T16:32:30.185Z,18.27
2018-12-15T16:34:58.284Z,17.77
2018-12-15T16:37:27.527Z,18.90
2018-12-15T16:39:57.307Z,18.13
2018-12-15T16:42:28.549Z,17.40
2018-12-15T16:44:56.670Z,18.43
2018-12-15T16:47:25.257Z,17.80
2018-12-15T16:49:54.791Z,19.03
2018-12-15T16:52:23.461Z,18.80
2018-12-15T16:54:51.950Z,17.80
2018-12-15T16:57:20.844Z,18.80
2018-12-15T16:59:50.625Z,19.20
2018-12-15T17:28:47.942Z,16.40
2018-12-15T17:31:16.620Z,17.53
2018-12-15T17:33:50.650Z,17.10
2018-12-15T17:42:10.948Z,16.03
2018-12-15T17:52:58.234Z,17.63
2018-12-15T17:55:39.133Z,16.27
2018-12-15T17:58:07.333Z,16.40
2018-12-15T18:00:47.399Z,17.57
2018-12-15T18:06:19.972Z,16.27
2018-12-15T18:08:58.374Z,16.20
2018-12-15T18:11:36.822Z,16.23
2018-12-15T18:14:05.356Z,15.97
2018-12-15T18:16:36.068Z,15.63
2018-12-15T18:19:12.294Z,15.47
2018-12-15T18:21:41.225Z,15.07
2018-12-15T18:24:09.620Z,15.63
2018-12-15T18:26:37.842Z,15.77
2018-12-15T18:29:09.686Z,16.03
2018-12-15T18:32:14.161Z,16.37
2018-12-15T18:34:42.252Z,15.53
2018-12-15T18:37:10.943Z,15.93
2018-12-15T18:39:39.137Z,15.50
2018-12-15T18:42:10.770Z,16.40
2018-12-15T18:44:37.913Z,15.70
2018-12-15T18:47:12.441Z,16.07
2018-12-15T18:49:40.873Z,16.20
2018-12-15T18:52:09.100Z,15.67
2018-12-15T18:54:37.374Z,15.80
2018-12-15T18:57:06.046Z,16.20
2018-12-15T18:59:34.281Z,16.23
2018-12-15T19:02:08.188Z,15.97
2018-12-15T19:04:36.394Z,16.17
2018-12-15T19:07:04.595Z,16.57
2018-12-15T19:09:32.832Z,14.87
2018-12-15T19:12:01.041Z,16.17
2018-12-15T19:14:42.840Z,16.40
2018-12-15T19:17:11.016Z,15.43
2018-12-15T19:19:39.291Z,16.17
2018-12-15T19:22:07.981Z,15.60
2018-12-15T19:24:37.423Z,17.00
2018-12-15T19:30:10.667Z,16.40
2018-12-15T19:32:49.103Z,16.47
2018-12-15T19:35:27.381Z,15.87
2018-12-15T19:38:02.941Z,17.03
2018-12-15T19:43:42.331Z,15.77
2018-12-15T19:52:19.927Z,15.67
2018-12-15T19:54:56.904Z,16.03
2018-12-15T20:00:33.259Z,15.80
2018-12-15T20:26:46.573Z,15.80
2018-12-15T20:29:25.080Z,14.20
2018-12-15T20:32:06.024Z,15.60
2018-12-15T20:34:44.415Z,16.00
2018-12-15T20:37:19.179Z,15.00
2018-12-15T20:39:59.670Z,15.47
2018-12-15T20:42:35.903Z,15.80
2018-12-15T20:56:35.335Z,17.00
2018-12-15T21:07:44.136Z,15.53
2018-12-15T21:10:20.328Z,14.77
2018-12-15T21:12:58.498Z,16.40
2018-12-15T21:15:40.965Z,15.53
2018-12-15T21:18:16.903Z,16.90
2018-12-15T21:20:55.476Z,16.17
2018-12-15T21:23:33.978Z,15.73
2018-12-15T21:35:04.224Z,15.60
2018-12-15T21:37:32.609Z,17.23
2018-12-15T21:40:00.848Z,16.97
2018-12-15T21:42:29.077Z,17.67
2018-12-15T21:44:57.715Z,16.17
2018-12-15T21:47:25.815Z,18.07
2018-12-15T21:49:54.092Z,17.40
2018-12-15T21:52:22.389Z,18.40
2018-12-15T21:54:50.661Z,17.70
2018-12-15T21:57:19.136Z,18.13
2018-12-15T21:59:47.277Z,17.20
2018-12-15T22:02:15.560Z,17.60
2018-12-15T22:04:44.125Z,18.17
2018-12-15T22:07:12.304Z,19.57
2018-12-15T22:09:40.454Z,20.63
2018-12-15T22:12:08.713Z,20.30
2018-12-15T22:14:37.094Z,19.77
2018-12-15T22:17:05.249Z,20.27
2018-12-15T22:19:33.682Z,20.60
2018-12-15T22:22:03.265Z,19.67
2018-12-15T22:24:31.923Z,19.27
2018-12-15T22:27:00.202Z,20.37
2018-12-15T22:29:28.441Z,21.60
2018-12-15T22:31:56.576Z,21.07
2018-12-15T22:34:24.832Z,21.30
2018-12-15T22:36:53.267Z,21.60
2018-12-15T22:39:26.962Z,22.13
2018-12-15T22:41:55.388Z,22.57
2018-12-15T22:44:23.496Z,22.47
2018-12-15T22:46:51.939Z,20.93
2018-12-15T22:49:20.215Z,22.53
2018-12-15T22:51:48.315Z,22.63
2018-12-15T22:54:16.515Z,22.73
2018-12-15T22:56:44.576Z,23.03
2018-12-15T22:59:12.728Z,22.10
2018-12-15T23:01:45.809Z,22.67
2018-12-15T23:04:15.111Z,21.93
2018-12-15T23:06:43.286Z,23.10
2018-12-15T23:09:11.450Z,23.10
2018-12-15T23:11:39.547Z,22.57
2018-12-15T23:14:07.764Z,23.70
2018-12-15T23:16:35.941Z,24.13
2018-12-15T23:19:04.038Z,23.47
2018-12-15T23:21:32.494Z,24.37
2018-12-15T23:24:00.562Z,24.37
2018-12-15T23:26:28.693Z,25.33
2018-12-15T23:28:57.462Z,24.93
2018-12-15T23:31:25.642Z,25.07
2018-12-15T23:33:53.818Z,24.87
2018-12-15T23:36:21.891Z,25.20
2018-12-15T23:38:50.105Z,24.77
2018-12-15T23:41:18.239Z,25.27
2018-12-15T23:43:46.416Z,27.03
2018-12-15T23:46:14.563Z,25.20
2018-12-15T23:48:42.628Z,24.53
2018-12-15T23:51:10.869Z,25.43
2018-12-15T23:53:39.470Z,25.57
2018-12-15T23:56:08.371Z,25.07
2018-12-15T23:58:36.555Z,26.37
